createdAt,value
2023-06-29T00:00:10.120Z,77.95
2023-06-29T00:02:41.036Z,77.65
2023-06-29T00:05:12.143Z,77.99
2023-06-29T00:07:40.398Z,77.89
2023-06-29T00:10:10.213Z,77.85
2023-06-29T00:12:39.014Z,77.87
2023-06-29T00:15:08.165Z,77.83
2023-06-29T00:17:36.964Z,77.67
2023-06-29T00:20:10.539Z,77.68
2023-06-29T00:22:41.639Z,77.53
2023-06-29T00:25:11.061Z,77.62
2023-06-29T00:27:39.510Z,77.49
2023-06-29T00:30:09.460Z,77.51
2023-06-29T00:32:37.728Z,77.81
2023-06-29T00:35:06.683Z,78.06
2023-06-29T00:37:34.960Z,78.01
2023-06-29T00:40:06.542Z,77.79
2023-06-29T00:42:35.671Z,78.02
2023-06-29T00:45:06.066Z,77.83
2023-06-29T00:47:35.718Z,77.85
2023-06-29T00:50:04.186Z,77.75
2023-06-29T00:52:33.184Z,77.75
2023-06-29T00:55:01.638Z,77.96
2023-06-29T00:57:31.742Z,78.06
2023-06-29T01:00:01.963Z,77.90
2023-06-29T01:02:32.260Z,78.08
2023-06-29T01:05:00.881Z,78.29
2023-06-29T01:07:33.669Z,78.63
2023-06-29T01:10:05.061Z,78.61
2023-06-29T01:12:36.434Z,78.73
2023-06-29T01:15:06.841Z,79.06
2023-06-29T01:17:38.571Z,78.86
2023-06-29T01:20:11.996Z,78.60
2023-06-29T01:22:46.085Z,78.47
2023-06-29T01:25:16.032Z,78.36
2023-06-29T01:27:44.775Z,78.07
2023-06-29T01:30:14.647Z,77.87
2023-06-29T01:32:43.271Z,77.65
2023-06-29T01:35:11.842Z,77.73
2023-06-29T01:37:44.275Z,77.67
2023-06-29T01:40:19.812Z,77.64
2023-06-29T01:42:50.983Z,77.21
2023-06-29T01:45:21.560Z,77.39
2023-06-29T01:47:49.786Z,77.48
2023-06-29T01:50:21.102Z,77.21
2023-06-29T01:52:49.398Z,76.94
2023-06-29T01:55:18.984Z,76.87
2023-06-29T01:57:47.136Z,76.69
2023-06-29T02:00:16.130Z,76.53
2023-06-29T02:02:44.445Z,76.38
2023-06-29T02:05:12.714Z,76.40
2023-06-29T02:07:41.669Z,76.15
2023-06-29T02:10:10.844Z,76.17
2023-06-29T02:12:42.182Z,75.90
2023-06-29T02:15:12.686Z,76.04
2023-06-29T02:17:41.046Z,75.81
2023-06-29T02:20:11.424Z,75.94
2023-06-29T02:22:40.212Z,75.44
2023-06-29T02:25:12.302Z,75.57
2023-06-29T02:27:41.875Z,75.35
2023-06-29T02:30:11.031Z,75.25
2023-06-29T02:32:39.266Z,75.34
2023-06-29T02:35:08.410Z,75.07
2023-06-29T02:37:37.157Z,74.81
2023-06-29T02:40:06.979Z,74.51
2023-06-29T02:42:35.636Z,74.40
2023-06-29T02:45:07.815Z,74.33
2023-06-29T02:47:36.397Z,74.25
2023-06-29T02:50:05.335Z,74.22
2023-06-29T02:52:42.934Z,73.99
2023-06-29T02:55:11.567Z,74.11
2023-06-29T02:57:39.726Z,73.98
2023-06-29T03:00:11.235Z,73.83
2023-06-29T03:02:39.638Z,73.92
2023-06-29T03:05:10.414Z,73.65
2023-06-29T03:07:38.789Z,73.96
2023-06-29T03:10:08.014Z,73.31
2023-06-29T03:12:36.261Z,73.33
2023-06-29T03:15:04.945Z,73.22
2023-06-29T03:17:34.709Z,72.87
2023-06-29T03:20:03.004Z,73.25
2023-06-29T03:22:31.342Z,73.21
2023-06-29T03:24:59.463Z,73.24
2023-06-29T03:27:27.831Z,73.45
2023-06-29T03:29:56.037Z,73.44
2023-06-29T03:32:24.250Z,73.36
2023-06-29T03:34:53.803Z,72.96
2023-06-29T03:37:22.042Z,72.82
2023-06-29T03:39:50.274Z,72.78
2023-06-29T03:42:18.462Z,72.62
2023-06-29T03:44:46.663Z,72.56
2023-06-29T03:47:14.842Z,72.92
2023-06-29T03:49:43.073Z,73.00
2023-06-29T03:52:12.681Z,72.63
2023-06-29T03:54:40.891Z,72.96
2023-06-29T03:57:09.444Z,72.89
2023-06-29T03:59:37.623Z,72.94
2023-06-29T04:02:06.423Z,72.85
2023-06-29T04:04:34.748Z,73.15
2023-06-29T04:07:02.902Z,73.25
2023-06-29T04:09:33.269Z,73.44
2023-06-29T04:12:01.444Z,73.71
2023-06-29T04:14:29.667Z,73.69
2023-06-29T04:16:57.813Z,73.64
2023-06-29T04:19:25.951Z,73.68
2023-06-29T04:21:55.423Z,73.53
2023-06-29T04:24:23.592Z,73.46
2023-06-29T04:26:53.092Z,73.66
2023-06-29T04:29:21.495Z,73.51
2023-06-29T04:31:49.716Z,73.47
2023-06-29T04:34:18.457Z,73.49
2023-06-29T04:36:47.821Z,73.72
2023-06-29T04:39:16.150Z,73.83
2023-06-29T04:41:44.653Z,73.73
2023-06-29T04:44:14.422Z,73.52
2023-06-29T04:46:43.121Z,73.63
2023-06-29T04:49:11.563Z,73.85
2023-06-29T04:51:40.011Z,73.52
2023-06-29T04:54:08.356Z,73.51
2023-06-29T04:56:37.060Z,73.60
2023-06-29T04:59:05.273Z,73.31
2023-06-29T05:01:35.097Z,73.38
2023-06-29T05:04:03.494Z,73.03
2023-06-29T05:06:31.937Z,73.11
2023-06-29T05:09:00.184Z,72.84
2023-06-29T05:11:28.399Z,72.91
2023-06-29T05:13:57.019Z,72.83
2023-06-29T05:16:25.592Z,72.75
2023-06-29T05:18:55.550Z,72.55
2023-06-29T05:21:23.983Z,72.25
2023-06-29T05:23:52.196Z,72.22
2023-06-29T05:26:20.343Z,72.10
2023-06-29T05:29:03.776Z,72.00
2023-06-29T05:31:33.970Z,71.74
2023-06-29T05:34:04.015Z,71.89
2023-06-29T05:36:32.738Z,71.25
2023-06-29T05:39:01.283Z,71.17
2023-06-29T05:41:29.925Z,71.11
2023-06-29T05:43:58.405Z,71.20
2023-06-29T05:46:26.781Z,71.22
2023-06-29T05:48:55.039Z,71.02
2023-06-29T05:51:25.021Z,70.95
2023-06-29T05:53:53.309Z,70.66
2023-06-29T05:56:21.739Z,70.73
2023-06-29T05:58:49.948Z,70.44
2023-06-29T06:01:18.833Z,70.53
2023-06-29T06:03:47.326Z,70.28
2023-06-29T06:06:16.382Z,69.90
2023-06-29T06:08:46.328Z,69.95
2023-06-29T06:11:14.608Z,69.64
2023-06-29T06:13:42.874Z,69.42
2023-06-29T06:16:11.274Z,69.23
2023-06-29T06:18:39.419Z,68.79
2023-06-29T06:21:07.602Z,68.12
2023-06-29T06:23:35.843Z,67.44
2023-06-29T06:26:05.518Z,66.95
2023-06-29T06:28:33.688Z,66.22
2023-06-29T06:31:01.999Z,66.02
2023-06-29T06:33:31.465Z,65.18
2023-06-29T06:36:00.608Z,65.11
2023-06-29T06:38:44.828Z,64.03
2023-06-29T06:41:18.732Z,60.99
2023-06-29T06:43:47.028Z,59.74
2023-06-29T06:46:15.798Z,57.86
2023-06-29T06:48:44.174Z,56.03
2023-06-29T06:51:12.413Z,54.57
2023-06-29T06:53:41.883Z,53.54
2023-06-29T06:56:10.452Z,52.75
2023-06-29T06:58:40.501Z,50.60
2023-06-29T07:01:09.125Z,48.86
2023-06-29T07:03:37.354Z,47.75
2023-06-29T07:06:05.601Z,46.13
2023-06-29T07:08:36.288Z,44.86
2023-06-29T07:11:04.535Z,44.58
2023-06-29T07:13:32.806Z,44.22
2023-06-29T07:16:02.569Z,43.51
2023-06-29T07:18:32.745Z,42.38
2023-06-29T07:26:03.290Z,44.70
2023-06-29T07:28:31.589Z,45.92
2023-06-29T07:30:59.791Z,47.30
2023-06-29T07:33:33.953Z,48.86
2023-06-29T07:36:03.954Z,48.90
2023-06-29T07:38:32.322Z,47.15
2023-06-29T07:41:00.435Z,48.42
2023-06-29T07:43:28.991Z,49.18
2023-06-29T07:45:58.221Z,49.85
2023-06-29T07:48:26.824Z,49.94
2023-06-29T07:50:56.610Z,51.04
2023-06-29T07:53:24.853Z,50.64
2023-06-29T07:55:53.128Z,49.62
2023-06-29T08:00:53.016Z,50.00
2023-06-29T08:03:21.222Z,50.53
2023-06-29T08:08:23.534Z,50.79
2023-06-29T08:10:51.860Z,51.20
2023-06-29T08:13:20.591Z,50.29
2023-06-29T08:15:49.111Z,49.88
2023-06-29T08:18:17.334Z,50.87
2023-06-29T08:20:47.400Z,51.81
2023-06-29T08:23:16.262Z,53.27
2023-06-29T08:25:45.948Z,54.91
2023-06-29T08:28:14.250Z,56.28
2023-06-29T08:30:42.571Z,56.84
2023-06-29T08:33:10.977Z,58.27
2023-06-29T08:35:39.260Z,59.71
2023-06-29T08:38:07.745Z,60.58
2023-06-29T08:40:37.926Z,62.17
2023-06-29T08:43:10.168Z,63.18
2023-06-29T08:45:38.420Z,64.18
2023-06-29T08:48:07.198Z,64.04
2023-06-29T08:50:37.667Z,64.55
2023-06-29T08:53:06.753Z,65.29
2023-06-29T08:55:35.311Z,63.92
2023-06-29T08:58:03.698Z,61.00
2023-06-29T09:00:33.664Z,58.20
2023-06-29T09:03:03.211Z,56.09
2023-06-29T09:05:31.627Z,55.69
2023-06-29T09:07:59.784Z,55.59
2023-06-29T09:10:28.084Z,55.30
2023-06-29T09:12:56.914Z,54.44
2023-06-29T09:15:26.422Z,53.25
2023-06-29T09:17:59.315Z,53.59
2023-06-29T09:20:28.951Z,54.75
2023-06-29T09:22:57.381Z,56.46
2023-06-29T09:25:34.818Z,58.02
2023-06-29T09:28:05.075Z,58.19
2023-06-29T09:30:38.396Z,58.94
2023-06-29T09:33:09.840Z,58.47
2023-06-29T09:35:40.023Z,58.71
2023-06-29T09:38:08.704Z,59.23
2023-06-29T09:40:49.274Z,60.54
2023-06-29T09:43:18.450Z,60.61
2023-06-29T09:45:46.682Z,59.92
2023-06-29T09:50:52.647Z,59.73
2023-06-29T09:53:30.948Z,58.50
2023-06-29T09:56:00.998Z,58.41
2023-06-29T09:58:30.317Z,57.89
2023-06-29T10:01:00.000Z,58.48
2023-06-29T10:03:32.942Z,58.57
2023-06-29T10:06:10.052Z,57.79
2023-06-29T10:08:40.637Z,58.34
2023-06-29T10:11:08.770Z,57.55
2023-06-29T10:13:44.908Z,57.14
2023-06-29T10:16:13.864Z,57.45
2023-06-29T10:18:46.472Z,56.26
2023-06-29T10:21:15.002Z,56.30
2023-06-29T10:23:45.505Z,55.45
2023-06-29T10:26:15.301Z,55.25
2023-06-29T10:28:44.030Z,55.16
2023-06-29T10:31:12.238Z,55.21
2023-06-29T10:33:50.220Z,55.37
2023-06-29T10:36:19.548Z,55.51
2023-06-29T10:38:47.779Z,56.13
2023-06-29T10:41:29.454Z,54.70
2023-06-29T10:43:59.824Z,55.32
2023-06-29T10:46:47.167Z,54.27
2023-06-29T10:49:27.158Z,52.92
2023-06-29T10:51:57.399Z,53.35
2023-06-29T10:54:26.372Z,53.50
2023-06-29T10:57:02.726Z,52.86
2023-06-29T10:59:33.237Z,50.14
2023-06-29T11:02:02.354Z,50.57
2023-06-29T11:04:32.464Z,50.44
2023-06-29T11:07:07.539Z,50.16
2023-06-29T11:09:37.039Z,48.99
2023-06-29T11:12:06.153Z,49.80
2023-06-29T11:14:39.688Z,49.18
2023-06-29T11:17:09.087Z,50.03
2023-06-29T11:19:46.648Z,50.31
2023-06-29T11:22:14.783Z,49.88
2023-06-29T11:24:44.495Z,47.91
2023-06-29T11:27:12.845Z,45.34
2023-06-29T11:29:41.187Z,46.30
2023-06-29T11:32:15.264Z,43.81
2023-06-29T11:34:44.877Z,44.37
2023-06-29T11:40:04.418Z,45.42
2023-06-29T11:42:33.001Z,45.57
2023-06-29T11:45:06.027Z,46.07
2023-06-29T11:47:35.108Z,44.24
2023-06-29T11:50:09.047Z,45.61
2023-06-29T11:52:38.014Z,45.78
2023-06-29T11:55:08.959Z,46.78
2023-06-29T11:57:39.002Z,46.63
2023-06-29T12:00:27.642Z,46.81
2023-06-29T12:02:56.139Z,46.46
2023-06-29T12:05:30.429Z,46.20
2023-06-29T12:08:07.302Z,47.04
2023-06-29T12:10:38.518Z,46.52
2023-06-29T12:13:08.134Z,46.44
2023-06-29T12:15:36.533Z,45.73
2023-06-29T12:18:15.057Z,45.88
2023-06-29T12:20:46.407Z,47.25
2023-06-29T12:23:16.499Z,47.23
2023-06-29T12:25:48.934Z,46.22
2023-06-29T12:28:18.037Z,47.34
2023-06-29T12:30:46.600Z,46.50
2023-06-29T12:33:15.801Z,47.27
2023-06-29T12:35:46.158Z,48.05
2023-06-29T12:38:14.914Z,48.31
2023-06-29T12:40:43.128Z,46.84
2023-06-29T12:43:11.247Z,47.40
2023-06-29T12:45:39.860Z,47.88
2023-06-29T12:48:08.485Z,47.78
2023-06-29T12:50:36.743Z,48.60
2023-06-29T12:53:06.757Z,46.35
2023-06-29T12:55:35.032Z,46.81
2023-06-29T12:58:03.475Z,47.39
2023-06-29T13:00:31.776Z,48.52
2023-06-29T13:03:00.530Z,47.12
2023-06-29T13:05:29.287Z,47.47
2023-06-29T13:07:57.439Z,47.03
2023-06-29T13:10:27.169Z,45.98
2023-06-29T13:12:55.527Z,46.85
2023-06-29T13:15:24.122Z,47.19
2023-06-29T13:17:53.046Z,45.05
2023-06-29T13:20:21.325Z,45.66
2023-06-29T13:22:49.556Z,45.01
2023-06-29T13:25:17.764Z,44.23
2023-06-29T13:27:48.255Z,43.89
2023-06-29T13:30:16.964Z,43.30
2023-06-29T13:32:45.229Z,43.14
2023-06-29T13:35:13.520Z,43.68
2023-06-29T13:37:42.075Z,43.97
2023-06-29T13:40:11.256Z,43.90
2023-06-29T13:42:39.905Z,44.43
2023-06-29T13:45:11.011Z,43.82
2023-06-29T13:47:44.120Z,43.15
2023-06-29T13:50:12.587Z,43.66
2023-06-29T13:52:41.138Z,42.50
2023-06-29T13:55:09.768Z,43.92
2023-06-29T13:57:37.928Z,43.59
2023-06-29T14:00:07.638Z,43.13
2023-06-29T14:02:38.993Z,44.09
2023-06-29T14:05:08.147Z,43.02
2023-06-29T14:07:36.673Z,43.92
2023-06-29T14:10:05.225Z,43.14
2023-06-29T14:12:33.514Z,44.14
2023-06-29T14:15:01.777Z,43.95
2023-06-29T14:17:30.071Z,42.60
2023-06-29T14:19:59.862Z,43.80
2023-06-29T14:22:28.458Z,43.64
2023-06-29T14:24:56.959Z,45.57
2023-06-29T14:27:25.175Z,44.66
2023-06-29T14:29:53.320Z,43.39
2023-06-29T14:32:21.715Z,43.90
2023-06-29T14:34:49.861Z,44.73
2023-06-29T14:37:20.065Z,45.08
2023-06-29T14:39:48.523Z,45.44
2023-06-29T14:42:16.662Z,44.54
2023-06-29T14:44:45.222Z,44.92
2023-06-29T14:47:13.807Z,45.65
2023-06-29T14:49:41.939Z,44.01
2023-06-29T14:52:10.143Z,45.36
2023-06-29T14:54:39.780Z,43.84
2023-06-29T14:57:08.305Z,44.73
2023-06-29T14:59:36.558Z,44.57
2023-06-29T15:02:05.348Z,45.40
2023-06-29T15:04:33.501Z,45.09
2023-06-29T15:07:01.710Z,45.37
2023-06-29T15:09:31.440Z,46.93
2023-06-29T15:12:03.268Z,46.73
2023-06-29T15:14:31.973Z,45.22
2023-06-29T15:17:01.170Z,45.53
2023-06-29T15:19:30.436Z,45.95
2023-06-29T15:21:59.296Z,45.34
2023-06-29T15:24:27.813Z,46.13
2023-06-29T15:26:56.267Z,46.30
2023-06-29T15:29:26.592Z,45.39
2023-06-29T15:31:55.019Z,44.14
2023-06-29T15:34:23.673Z,43.91
2023-06-29T15:36:51.890Z,43.90
2023-06-29T15:39:20.081Z,44.15
2023-06-29T15:41:50.952Z,44.71
2023-06-29T15:44:20.192Z,44.89
2023-06-29T15:46:55.431Z,44.47
2023-06-29T15:49:24.145Z,44.89
2023-06-29T15:51:52.462Z,44.94
2023-06-29T15:54:20.868Z,44.42
2023-06-29T15:56:49.019Z,44.43
2023-06-29T15:59:18.887Z,43.63
2023-06-29T16:01:47.458Z,43.88
2023-06-29T16:04:19.486Z,43.96
2023-06-29T16:06:48.766Z,44.33
2023-06-29T16:09:16.999Z,44.46
2023-06-29T16:11:45.106Z,44.84
2023-06-29T16:14:13.345Z,45.03
2023-06-29T16:16:41.506Z,45.34
2023-06-29T16:19:15.926Z,45.05
2023-06-29T16:21:46.818Z,44.21
2023-06-29T16:24:15.118Z,44.85
2023-06-29T16:26:43.411Z,44.52
2023-06-29T16:29:11.566Z,44.90
2023-06-29T16:31:41.589Z,44.18
2023-06-29T16:34:10.937Z,45.51
2023-06-29T16:36:39.202Z,45.15
2023-06-29T16:39:09.536Z,45.87
2023-06-29T16:41:40.724Z,44.90
2023-06-29T16:44:09.133Z,44.75
2023-06-29T16:46:37.243Z,45.99
2023-06-29T16:49:05.682Z,45.98
2023-06-29T16:51:34.181Z,46.53
2023-06-29T16:54:02.434Z,46.19
2023-06-29T16:56:32.360Z,46.32
2023-06-29T16:59:00.528Z,46.48
2023-06-29T17:01:28.819Z,46.82
2023-06-29T17:03:57.130Z,47.16
2023-06-29T17:06:25.520Z,47.46
2023-06-29T17:08:53.924Z,47.23
2023-06-29T17:11:22.146Z,47.26
2023-06-29T17:13:51.961Z,47.59
2023-06-29T17:16:20.201Z,47.39
2023-06-29T17:18:48.442Z,47.35
2023-06-29T17:21:18.523Z,47.16
2023-06-29T17:23:46.731Z,46.59
2023-06-29T17:26:14.907Z,47.02
2023-06-29T17:28:43.330Z,47.34
2023-06-29T17:31:13.244Z,47.34
2023-06-29T17:33:53.898Z,47.41
2023-06-29T17:36:23.293Z,47.64
2023-06-29T17:38:51.807Z,47.73
2023-06-29T17:41:20.278Z,47.81
2023-06-29T17:43:48.449Z,47.75
2023-06-29T17:46:18.212Z,47.89
2023-06-29T17:48:46.433Z,48.24
2023-06-29T17:51:15.661Z,48.36
2023-06-29T17:53:45.416Z,47.26
2023-06-29T17:56:15.852Z,47.84
2023-06-29T17:58:45.371Z,47.22
2023-06-29T18:01:13.712Z,47.37
2023-06-29T18:03:44.279Z,47.83
2023-06-29T18:06:13.056Z,48.53
2023-06-29T18:08:41.402Z,49.07
2023-06-29T18:11:10.215Z,49.85
2023-06-29T18:13:38.805Z,50.26
2023-06-29T18:16:07.193Z,50.53
2023-06-29T18:18:35.523Z,50.96
2023-06-29T18:21:05.811Z,50.70
2023-06-29T18:23:33.931Z,50.27
2023-06-29T18:26:02.804Z,50.28
2023-06-29T18:28:31.155Z,50.35
2023-06-29T18:30:59.303Z,50.40
2023-06-29T18:33:27.732Z,50.44
2023-06-29T18:35:55.998Z,50.14
2023-06-29T18:38:25.680Z,50.16
2023-06-29T18:40:53.877Z,50.80
2023-06-29T18:43:22.055Z,50.48
2023-06-29T18:45:50.745Z,51.01
2023-06-29T18:48:18.981Z,51.11
2023-06-29T18:50:47.167Z,51.10
2023-06-29T18:53:15.517Z,51.26
2023-06-29T18:55:45.451Z,51.71
2023-06-29T18:58:14.880Z,51.85
2023-06-29T19:00:43.009Z,52.44
2023-06-29T19:03:11.287Z,52.49
2023-06-29T19:05:39.789Z,52.61
2023-06-29T19:08:08.082Z,53.28
2023-06-29T19:10:36.317Z,53.47
2023-06-29T19:13:06.535Z,53.61
2023-06-29T19:15:34.682Z,54.06
2023-06-29T19:18:03.341Z,54.61
2023-06-29T19:20:31.550Z,54.59
2023-06-29T19:22:59.986Z,54.94
2023-06-29T19:25:28.475Z,55.12
2023-06-29T19:27:56.704Z,55.21
2023-06-29T19:30:26.308Z,55.37
2023-06-29T19:32:54.529Z,55.68
2023-06-29T19:35:22.795Z,55.67
2023-06-29T19:37:51.046Z,55.68
2023-06-29T19:40:19.354Z,55.72
2023-06-29T19:42:47.612Z,56.14
2023-06-29T19:45:15.800Z,56.26
2023-06-29T19:47:46.947Z,56.16
2023-06-29T19:50:15.134Z,56.10
2023-06-29T19:52:43.287Z,56.17
2023-06-29T19:55:11.972Z,56.58
2023-06-29T19:57:40.295Z,56.58
2023-06-29T20:00:09.633Z,56.77
2023-06-29T20:02:55.151Z,56.90
2023-06-29T20:05:23.598Z,57.04
2023-06-29T20:07:52.681Z,57.21
2023-06-29T20:10:20.823Z,57.51
2023-06-29T20:12:49.230Z,57.45
2023-06-29T20:15:17.643Z,57.85
2023-06-29T20:17:45.822Z,57.97
2023-06-29T20:20:16.246Z,58.19
2023-06-29T20:22:44.523Z,58.46
2023-06-29T20:25:12.879Z,58.53
2023-06-29T20:27:41.193Z,58.59
2023-06-29T20:30:10.410Z,59.14
2023-06-29T20:32:39.376Z,59.04
2023-06-29T20:35:07.955Z,59.40
2023-06-29T20:37:37.553Z,59.31
2023-06-29T20:40:07.030Z,59.63
2023-06-29T20:42:38.875Z,59.62
2023-06-29T20:45:08.735Z,59.59
2023-06-29T20:47:37.536Z,59.69
2023-06-29T20:50:06.224Z,60.11
2023-06-29T20:52:34.355Z,60.30
2023-06-29T20:55:04.081Z,60.28
2023-06-29T20:57:32.351Z,60.88
2023-06-29T21:00:00.936Z,61.32
2023-06-29T21:02:29.180Z,61.18
2023-06-29T21:04:57.645Z,61.29
2023-06-29T21:07:26.025Z,61.83
2023-06-29T21:09:54.552Z,62.05
2023-06-29T21:12:24.537Z,62.18
2023-06-29T21:14:53.510Z,62.23
2023-06-29T21:17:22.507Z,62.77
2023-06-29T21:19:51.433Z,62.75
2023-06-29T21:22:19.957Z,63.17
2023-06-29T21:24:48.701Z,63.20
2023-06-29T21:27:19.163Z,63.31
2023-06-29T21:29:50.035Z,63.44
2023-06-29T21:32:19.004Z,63.50
2023-06-29T21:34:47.676Z,63.33
2023-06-29T21:37:17.111Z,63.38
2023-06-29T21:39:45.222Z,63.63
2023-06-29T21:42:13.525Z,63.60
2023-06-29T21:44:41.666Z,64.03
2023-06-29T21:47:12.002Z,64.07
2023-06-29T21:49:40.287Z,64.18
2023-06-29T21:52:09.306Z,64.29
2023-06-29T21:54:37.437Z,64.30
2023-06-29T21:57:06.792Z,64.59
2023-06-29T21:59:34.918Z,64.45
2023-06-29T22:02:03.561Z,64.64
2023-06-29T22:04:33.198Z,64.74
2023-06-29T22:07:11.648Z,65.01
2023-06-29T22:09:44.254Z,64.97
2023-06-29T22:12:13.188Z,64.83
2023-06-29T22:14:41.570Z,65.30
2023-06-29T22:17:09.992Z,65.30
2023-06-29T22:19:39.590Z,65.32
2023-06-29T22:22:08.730Z,65.63
2023-06-29T22:24:36.938Z,65.71
2023-06-29T22:27:06.029Z,65.79
2023-06-29T22:29:34.182Z,65.78
2023-06-29T22:32:02.355Z,65.92
2023-06-29T22:34:30.571Z,65.89
2023-06-29T22:37:00.416Z,66.02
2023-06-29T22:39:28.957Z,66.40
2023-06-29T22:41:57.722Z,66.23
2023-06-29T22:44:25.803Z,66.32
2023-06-29T22:46:54.025Z,66.48
2023-06-29T22:49:22.232Z,66.30
2023-06-29T22:51:50.489Z,66.65
2023-06-29T22:54:20.264Z,66.45
2023-06-29T22:56:49.817Z,66.46
2023-06-29T22:59:18.179Z,66.68
2023-06-29T23:01:46.420Z,66.72
2023-06-29T23:04:14.739Z,66.84
2023-06-29T23:06:45.347Z,66.81
2023-06-29T23:09:13.680Z,66.86
2023-06-29T23:11:43.453Z,67.01
2023-06-29T23:14:15.414Z,66.96
2023-06-29T23:16:44.777Z,67.23
2023-06-29T23:19:13.219Z,67.57
2023-06-29T23:21:41.418Z,67.51
2023-06-29T23:24:14.756Z,67.49
2023-06-29T23:26:46.613Z,67.69
2023-06-29T23:29:15.407Z,67.42
2023-06-29T23:31:43.889Z,67.66
2023-06-29T23:34:12.281Z,67.71
2023-06-29T23:36:40.871Z,67.81
2023-06-29T23:39:10.980Z,67.75
2023-06-29T23:41:39.115Z,67.82
2023-06-29T23:44:09.381Z,68.21
2023-06-29T23:46:45.473Z,67.95
2023-06-29T23:49:15.787Z,68.23
2023-06-29T23:51:44.470Z,68.34
2023-06-29T23:54:13.693Z,68.36
2023-06-29T23:56:42.836Z,68.22
2023-06-29T23:59:13.057Z,68.36
